sensor_id;sensor_type;location;lat;lon;timestamp;pressure;altitude;pressure_sealevel;temperature;humidity
64668;BME280;51077;42.716;23.344;2023-01-25T00:02:01;96492.19;;;5.94;55.88
64668;BME280;51077;42.716;23.344;2023-01-25T00:04:27;96501.88;;;5.95;56.11
64668;BME280;51077;42.716;23.344;2023-01-25T00:06:53;96497.94;;;5.96;56.17
64668;BME280;51077;42.716;23.344;2023-01-25T00:09:19;96494.91;;;5.94;56.49
64668;BME280;51077;42.716;23.344;2023-01-25T00:11:45;96494.16;;;5.93;55.99
64668;BME280;51077;42.716;23.344;2023-01-25T00:14:12;96499.59;;;5.93;56.34
64668;BME280;51077;42.716;23.344;2023-01-25T00:16:38;96500.38;;;5.94;56.33
64668;BME280;51077;42.716;23.344;2023-01-25T00:19:04;96495.66;;;5.94;56.52
64668;BME280;51077;42.716;23.344;2023-01-25T00:21:30;96491.88;;;5.92;55.97
64668;BME280;51077;42.716;23.344;2023-01-25T00:23:55;96492.66;;;5.92;56.19
64668;BME280;51077;42.716;23.344;2023-01-25T00:26:21;96490.31;;;5.91;56.68
64668;BME280;51077;42.716;23.344;2023-01-25T00:28:51;96480.19;;;5.91;56.47
64668;BME280;51077;42.716;23.344;2023-01-25T00:31:25;96490.31;;;5.91;56.53
64668;BME280;51077;42.716;23.344;2023-01-25T00:34:05;96495.78;;;5.91;56.43
64668;BME280;51077;42.716;23.344;2023-01-25T00:36:39;96495.78;;;5.91;56.54
64668;BME280;51077;42.716;23.344;2023-01-25T00:39:06;96494.25;;;5.90;56.58
64668;BME280;51077;42.716;23.344;2023-01-25T00:41:35;96495.47;;;5.89;56.62
64668;BME280;51077;42.716;23.344;2023-01-25T00:44:00;96494.25;;;5.90;57.09
64668;BME280;51077;42.716;23.344;2023-01-25T00:46:26;96501.69;;;5.89;56.62
64668;BME280;51077;42.716;23.344;2023-01-25T00:48:52;96494.72;;;5.88;56.81
64668;BME280;51077;42.716;23.344;2023-01-25T00:51:19;96493.97;;;5.88;56.83
64668;BME280;51077;42.716;23.344;2023-01-25T00:53:44;96500.19;;;5.88;56.71
64668;BME280;51077;42.716;23.344;2023-01-25T00:56:10;96495.91;;;5.87;56.55
64668;BME280;51077;42.716;23.344;2023-01-25T00:58:35;96502.91;;;5.88;56.61
64668;BME280;51077;42.716;23.344;2023-01-25T01:01:00;96502.16;;;5.88;56.89
64668;BME280;51077;42.716;23.344;2023-01-25T01:03:26;96501.34;;;5.87;56.69
64668;BME280;51077;42.716;23.344;2023-01-25T01:06:03;96495.91;;;5.87;56.99
64668;BME280;51077;42.716;23.344;2023-01-25T01:08:32;96503.31;;;5.87;56.80
64668;BME280;51077;42.716;23.344;2023-01-25T01:10:59;96498.34;;;5.85;56.51
64668;BME280;51077;42.716;23.344;2023-01-25T01:13:26;96490.47;;;5.87;56.77
64668;BME280;51077;42.716;23.344;2023-01-25T01:15:51;96492.44;;;5.87;56.81
64668;BME280;51077;42.716;23.344;2023-01-25T01:18:17;96488.94;;;5.86;56.50
64668;BME280;51077;42.716;23.344;2023-01-25T01:20:48;96494.41;;;5.86;56.93
64668;BME280;51077;42.716;23.344;2023-01-25T01:23:14;96486.69;;;5.85;56.74
64668;BME280;51077;42.716;23.344;2023-01-25T01:25:39;96482.00;;;5.85;56.82
64668;BME280;51077;42.716;23.344;2023-01-25T01:28:05;96483.50;;;5.86;56.66
64668;BME280;51077;42.716;23.344;2023-01-25T01:30:30;96480.03;;;5.86;56.63
64668;BME280;51077;42.716;23.344;2023-01-25T01:32:55;96480.78;;;5.86;56.72
64668;BME280;51077;42.716;23.344;2023-01-25T01:35:21;96477.75;;;5.84;56.89
64668;BME280;51077;42.716;23.344;2023-01-25T01:37:46;96478.06;;;5.86;56.80
64668;BME280;51077;42.716;23.344;2023-01-25T01:40:15;96476.53;;;5.85;56.65
64668;BME280;51077;42.716;23.344;2023-01-25T01:43:14;96476.53;;;5.85;56.85
64668;BME280;51077;42.716;23.344;2023-01-25T01:48:37;96471.09;;;5.85;56.48
64668;BME280;51077;42.716;23.344;2023-01-25T01:51:36;96468.38;;;5.85;56.86
64668;BME280;51077;42.716;23.344;2023-01-25T01:54:15;96468.84;;;5.84;56.90
64668;BME280;51077;42.716;23.344;2023-01-25T01:56:56;96465.31;;;5.83;56.94
64668;BME280;51077;42.716;23.344;2023-01-25T01:59:27;96466.53;;;5.82;57.09
64668;BME280;51077;42.716;23.344;2023-01-25T02:01:55;96478.19;;;5.83;56.63
64668;BME280;51077;42.716;23.344;2023-01-25T02:04:21;96475.16;;;5.80;57.09
64668;BME280;51077;42.716;23.344;2023-01-25T02:06:56;96473.66;;;5.79;56.94
64668;BME280;51077;42.716;23.344;2023-01-25T02:09:25;96468.66;;;5.78;56.84
64668;BME280;51077;42.716;23.344;2023-01-25T02:11:52;96474.09;;;5.78;56.97
64668;BME280;51077;42.716;23.344;2023-01-25T02:14:18;96473.34;;;5.77;56.81
64668;BME280;51077;42.716;23.344;2023-01-25T02:16:45;96469.09;;;5.76;56.90
64668;BME280;51077;42.716;23.344;2023-01-25T02:19:25;96480.47;;;5.75;57.11
64668;BME280;51077;42.716;23.344;2023-01-25T02:21:56;96466.06;;;5.74;56.84
64668;BME280;51077;42.716;23.344;2023-01-25T02:24:27;96473.94;;;5.72;56.77
64668;BME280;51077;42.716;23.344;2023-01-25T02:26:54;96468.50;;;5.72;56.72
64668;BME280;51077;42.716;23.344;2023-01-25T02:29:19;96477.13;;;5.71;57.12
64668;BME280;51077;42.716;23.344;2023-01-25T02:31:48;96465.47;;;5.70;57.38
64668;BME280;51077;42.716;23.344;2023-01-25T02:34:17;96467.41;;;5.70;57.05
64668;BME280;51077;42.716;23.344;2023-01-25T02:36:42;96467.88;;;5.68;56.79
64668;BME280;51077;42.716;23.344;2023-01-25T02:39:12;96467.88;;;5.68;57.21
64668;BME280;51077;42.716;23.344;2023-01-25T02:41:42;96464.38;;;5.68;57.02
64668;BME280;51077;42.716;23.344;2023-01-25T02:44:12;96453.50;;;5.68;57.13
64668;BME280;51077;42.716;23.344;2023-01-25T02:46:39;96464.84;;;5.66;56.90
64668;BME280;51077;42.716;23.344;2023-01-25T02:49:07;96463.31;;;5.65;57.17
64668;BME280;51077;42.716;23.344;2023-01-25T02:51:35;96455.13;;;5.65;56.95
64668;BME280;51077;42.716;23.344;2023-01-25T02:54:02;96459.53;;;5.63;56.82
64668;BME280;51077;42.716;23.344;2023-01-25T02:56:28;96463.47;;;5.62;57.26
64668;BME280;51077;42.716;23.344;2023-01-25T02:58:54;96456.06;;;5.62;56.83
64668;BME280;51077;42.716;23.344;2023-01-25T03:01:20;96462.69;;;5.61;56.99
64668;BME280;51077;42.716;23.344;2023-01-25T03:03:45;96458.03;;;5.62;56.98
64668;BME280;51077;42.716;23.344;2023-01-25T03:06:11;96463.16;;;5.60;57.16
64668;BME280;51077;42.716;23.344;2023-01-25T03:08:36;96463.47;;;5.62;57.16
64668;BME280;51077;42.716;23.344;2023-01-25T03:11:04;96463.16;;;5.60;56.94
64668;BME280;51077;42.716;23.344;2023-01-25T03:13:30;96465.88;;;5.60;57.20
64668;BME280;51077;42.716;23.344;2023-01-25T03:16:05;96472.53;;;5.59;57.39
64668;BME280;51077;42.716;23.344;2023-01-25T03:18:31;96470.56;;;5.59;56.77
64668;BME280;51077;42.716;23.344;2023-01-25T03:21:03;96466.63;;;5.60;56.97
64668;BME280;51077;42.716;23.344;2023-01-25T03:23:28;96467.84;;;5.59;56.78
64668;BME280;51077;42.716;23.344;2023-01-25T03:25:54;96465.88;;;5.60;56.84
64668;BME280;51077;42.716;23.344;2023-01-25T03:28:19;96464.38;;;5.59;56.69
64668;BME280;51077;42.716;23.344;2023-01-25T03:30:44;96456.63;;;5.57;57.00
64668;BME280;51077;42.716;23.344;2023-01-25T03:33:14;96458.91;;;5.59;56.90
64668;BME280;51077;42.716;23.344;2023-01-25T03:35:39;96469.81;;;5.59;56.95
64668;BME280;51077;42.716;23.344;2023-01-25T03:38:04;96467.53;;;5.57;56.99
64668;BME280;51077;42.716;23.344;2023-01-25T03:40:30;96458.91;;;5.59;56.65
64668;BME280;51077;42.716;23.344;2023-01-25T03:42:55;96461.66;;;5.59;56.81
64668;BME280;51077;42.716;23.344;2023-01-25T03:45:21;96457.41;;;5.58;56.81
64668;BME280;51077;42.716;23.344;2023-01-25T03:47:46;96456.19;;;5.59;56.84
64668;BME280;51077;42.716;23.344;2023-01-25T03:50:12;96461.66;;;5.59;56.88
64668;BME280;51077;42.716;23.344;2023-01-25T03:52:45;96460.13;;;5.58;56.87
64668;BME280;51077;42.716;23.344;2023-01-25T03:55:18;96456.19;;;5.59;56.76
64668;BME280;51077;42.716;23.344;2023-01-25T03:57:44;96456.19;;;5.59;56.73
64668;BME280;51077;42.716;23.344;2023-01-25T04:00:10;96451.97;;;5.58;56.71
64668;BME280;51077;42.716;23.344;2023-01-25T04:02:36;96448.47;;;5.57;56.71
64668;BME280;51077;42.716;23.344;2023-01-25T04:05:02;96445.75;;;5.57;56.63
64668;BME280;51077;42.716;23.344;2023-01-25T04:07:27;96439.53;;;5.57;56.63
64668;BME280;51077;42.716;23.344;2023-01-25T04:09:53;96443.47;;;5.55;56.49
64668;BME280;51077;42.716;23.344;2023-01-25T04:12:18;96444.22;;;5.56;56.64
64668;BME280;51077;42.716;23.344;2023-01-25T04:14:43;96442.72;;;5.55;56.67
64668;BME280;51077;42.716;23.344;2023-01-25T04:17:09;96443.47;;;5.55;56.77
64668;BME280;51077;42.716;23.344;2023-01-25T04:19:35;96438.03;;;5.55;56.63
64668;BME280;51077;42.716;23.344;2023-01-25T04:22:00;96443.47;;;5.55;56.67
64668;BME280;51077;42.716;23.344;2023-01-25T04:24:28;96443.19;;;5.53;56.77
64668;BME280;51077;42.716;23.344;2023-01-25T04:26:53;96438.78;;;5.56;56.71
64668;BME280;51077;42.716;23.344;2023-01-25T04:29:18;96445.44;;;5.55;56.58
64668;BME280;51077;42.716;23.344;2023-01-25T04:31:44;96442.72;;;5.55;56.67
64668;BME280;51077;42.716;23.344;2023-01-25T04:34:09;96443.47;;;5.55;56.79
64668;BME280;51077;42.716;23.344;2023-01-25T04:36:35;96447.41;;;5.54;56.74
64668;BME280;51077;42.716;23.344;2023-01-25T04:39:00;96447.41;;;5.54;56.56
64668;BME280;51077;42.716;23.344;2023-01-25T04:41:25;96449.38;;;5.54;56.87
64668;BME280;51077;42.716;23.344;2023-01-25T04:43:53;96445.91;;;5.53;56.80
64668;BME280;51077;42.716;23.344;2023-01-25T04:46:19;96455.56;;;5.54;56.74
64668;BME280;51077;42.716;23.344;2023-01-25T04:48:44;96461.03;;;5.54;56.73
64668;BME280;51077;42.716;23.344;2023-01-25T04:51:10;96462.53;;;5.55;56.48
64668;BME280;51077;42.716;23.344;2023-01-25T04:53:35;96455.88;;;5.57;57.00
64668;BME280;51077;42.716;23.344;2023-01-25T04:56:00;96448.16;;;5.55;57.09
64668;BME280;51077;42.716;23.344;2023-01-25T04:58:26;96450.88;;;5.55;57.03
64668;BME280;51077;42.716;23.344;2023-01-25T05:00:51;96448.16;;;5.55;56.77
64668;BME280;51077;42.716;23.344;2023-01-25T05:03:17;96450.88;;;5.55;57.02
64668;BME280;51077;42.716;23.344;2023-01-25T05:05:45;96452.84;;;5.54;57.19
64668;BME280;51077;42.716;23.344;2023-01-25T05:08:10;96458.31;;;5.54;57.21
64668;BME280;51077;42.716;23.344;2023-01-25T05:10:36;96454.06;;;5.53;57.31
64668;BME280;51077;42.716;23.344;2023-01-25T05:13:01;96451.78;;;5.52;56.96
64668;BME280;51077;42.716;23.344;2023-01-25T05:15:27;96448.44;;;5.48;57.33
64668;BME280;51077;42.716;23.344;2023-01-25T05:17:52;96443.00;;;5.48;57.20
64668;BME280;51077;42.716;23.344;2023-01-25T05:20:18;96446.94;;;5.47;57.43
64668;BME280;51077;42.716;23.344;2023-01-25T05:22:43;96443.16;;;5.44;57.27
64668;BME280;51077;42.716;23.344;2023-01-25T05:25:09;96444.34;;;5.43;57.14
64668;BME280;51077;42.716;23.344;2023-01-25T05:27:54;96437.84;;;5.41;57.26
64668;BME280;51077;42.716;23.344;2023-01-25T05:30:20;96440.56;;;5.41;57.59
64668;BME280;51077;42.716;23.344;2023-01-25T05:32:47;96444.78;;;5.42;57.14
64668;BME280;51077;42.716;23.344;2023-01-25T05:35:13;96444.03;;;5.41;57.78
64668;BME280;51077;42.716;23.344;2023-01-25T05:37:39;96440.09;;;5.42;57.29
64668;BME280;51077;42.716;23.344;2023-01-25T05:40:05;96450.25;;;5.42;57.58
64668;BME280;51077;42.716;23.344;2023-01-25T05:42:30;96450.25;;;5.42;57.33
64668;BME280;51077;42.716;23.344;2023-01-25T05:44:56;96449.78;;;5.43;57.57
64668;BME280;51077;42.716;23.344;2023-01-25T05:47:22;96451.75;;;5.43;57.40
64668;BME280;51077;42.716;23.344;2023-01-25T05:49:47;96454.94;;;5.41;57.70
64668;BME280;51077;42.716;23.344;2023-01-25T05:52:14;96459.16;;;5.42;57.65
64668;BME280;51077;42.716;23.344;2023-01-25T05:54:40;96459.91;;;5.43;57.64
64668;BME280;51077;42.716;23.344;2023-01-25T05:57:05;96456.44;;;5.42;57.48
64668;BME280;51077;42.716;23.344;2023-01-25T05:59:31;96461.13;;;5.42;57.46
64668;BME280;51077;42.716;23.344;2023-01-25T06:01:56;96459.91;;;5.43;57.32
64668;BME280;51077;42.716;23.344;2023-01-25T06:04:21;96462.63;;;5.43;57.54
64668;BME280;51077;42.716;23.344;2023-01-25T06:06:47;96462.63;;;5.43;57.60
64668;BME280;51077;42.716;23.344;2023-01-25T06:09:13;96460.38;;;5.41;57.56
64668;BME280;51077;42.716;23.344;2023-01-25T06:11:42;96458.41;;;5.42;57.45
64668;BME280;51077;42.716;23.344;2023-01-25T06:14:08;96456.44;;;5.42;57.63
64668;BME280;51077;42.716;23.344;2023-01-25T06:16:33;96457.19;;;5.43;57.52
64668;BME280;51077;42.716;23.344;2023-01-25T06:18:58;96468.84;;;5.43;57.46
64668;BME280;51077;42.716;23.344;2023-01-25T06:21:24;96470.38;;;5.44;57.44
64668;BME280;51077;42.716;23.344;2023-01-25T06:23:49;96466.44;;;5.45;57.38
64668;BME280;51077;42.716;23.344;2023-01-25T06:26:15;96461.75;;;5.46;57.83
64668;BME280;51077;42.716;23.344;2023-01-25T06:28:40;96460.09;;;5.48;57.63
64668;BME280;51077;42.716;23.344;2023-01-25T06:31:12;96467.50;;;5.48;57.59
64668;BME280;51077;42.716;23.344;2023-01-25T06:33:39;96463.59;;;5.49;57.40
64668;BME280;51077;42.716;23.344;2023-01-25T06:36:09;96467.34;;;5.51;57.95
64668;BME280;51077;42.716;23.344;2023-01-25T06:38:35;96463.13;;;5.50;57.47
64668;BME280;51077;42.716;23.344;2023-01-25T06:41:02;96469.19;;;5.54;57.76
64668;BME280;51077;42.716;23.344;2023-01-25T06:43:29;96461.03;;;5.54;57.57
64668;BME280;51077;42.716;23.344;2023-01-25T06:45:59;96462.06;;;5.57;57.76
64668;BME280;51077;42.716;23.344;2023-01-25T06:48:25;96453.91;;;5.57;57.65
64668;BME280;51077;42.716;23.344;2023-01-25T06:50:58;96455.44;;;5.58;57.64
64668;BME280;51077;42.716;23.344;2023-01-25T06:53:29;96457.72;;;5.60;57.48
64668;BME280;51077;42.716;23.344;2023-01-25T06:56:03;96461.50;;;5.62;57.64
64668;BME280;51077;42.716;23.344;2023-01-25T06:58:29;96465.41;;;5.61;57.64
64668;BME280;51077;42.716;23.344;2023-01-25T07:01:04;96463.91;;;5.60;57.57
64668;BME280;51077;42.716;23.344;2023-01-25T07:03:30;96466.19;;;5.62;57.27
64668;BME280;51077;42.716;23.344;2023-01-25T07:06:01;96465.41;;;5.61;57.40
64668;BME280;51077;42.716;23.344;2023-01-25T07:08:27;96470.44;;;5.63;57.67
64668;BME280;51077;42.716;23.344;2023-01-25T07:10:57;96460.28;;;5.63;57.69
64668;BME280;51077;42.716;23.344;2023-01-25T07:13:24;96455.59;;;5.64;57.44
64668;BME280;51077;42.716;23.344;2023-01-25T07:16:02;96459.41;;;5.66;57.46
64668;BME280;51077;42.716;23.344;2023-01-25T07:18:28;96461.81;;;5.64;57.02
64668;BME280;51077;42.716;23.344;2023-01-25T07:20:55;96458.63;;;5.66;57.50
64668;BME280;51077;42.716;23.344;2023-01-25T07:23:20;96461.66;;;5.68;57.34
64668;BME280;51077;42.716;23.344;2023-01-25T07:25:47;96467.41;;;5.70;57.32
64668;BME280;51077;42.716;23.344;2023-01-25T07:28:14;96464.69;;;5.70;57.21
64668;BME280;51077;42.716;23.344;2023-01-25T07:30:40;96468.19;;;5.70;57.11
64668;BME280;51077;42.716;23.344;2023-01-25T07:33:06;96469.69;;;5.71;57.30
64668;BME280;51077;42.716;23.344;2023-01-25T07:35:32;96463.03;;;5.72;57.26
64668;BME280;51077;42.716;23.344;2023-01-25T07:37:58;96476.19;;;5.74;57.32
64668;BME280;51077;42.716;23.344;2023-01-25T07:40:23;96478.16;;;5.73;56.94
64668;BME280;51077;42.716;23.344;2023-01-25T07:42:50;96470.75;;;5.74;57.25
64668;BME280;51077;42.716;23.344;2023-01-25T07:45:16;96476.53;;;5.76;57.15
64668;BME280;51077;42.716;23.344;2023-01-25T07:47:41;96480.47;;;5.75;56.75
64668;BME280;51077;42.716;23.344;2023-01-25T07:50:07;96476.97;;;5.74;57.26
64668;BME280;51077;42.716;23.344;2023-01-25T07:52:33;96484.69;;;5.76;56.92
64668;BME280;51077;42.716;23.344;2023-01-25T07:54:58;96481.66;;;5.74;56.65
64668;BME280;51077;42.716;23.344;2023-01-25T07:57:24;96488.63;;;5.75;56.92
64668;BME280;51077;42.716;23.344;2023-01-25T07:59:49;96486.34;;;5.73;56.79
64668;BME280;51077;42.716;23.344;2023-01-25T08:02:15;96479.38;;;5.72;57.03
64668;BME280;51077;42.716;23.344;2023-01-25T08:04:41;96477.75;;;5.75;56.78
64668;BME280;51077;42.716;23.344;2023-01-25T08:07:07;96476.06;;;5.77;56.99
64668;BME280;51077;42.716;23.344;2023-01-25T08:09:32;96481.22;;;5.75;56.67
64668;BME280;51077;42.716;23.344;2023-01-25T08:11:58;96475.31;;;5.77;56.77
64668;BME280;51077;42.716;23.344;2023-01-25T08:14:23;96479.53;;;5.78;56.51
64668;BME280;51077;42.716;23.344;2023-01-25T08:16:49;96477.56;;;5.78;56.52
64668;BME280;51077;42.716;23.344;2023-01-25T08:19:14;96467.47;;;5.79;56.54
64668;BME280;51077;42.716;23.344;2023-01-25T08:21:40;96470.94;;;5.79;56.50
64668;BME280;51077;42.716;23.344;2023-01-25T08:24:06;96466.69;;;5.78;56.42
64668;BME280;51077;42.716;23.344;2023-01-25T08:26:33;96470.19;;;5.79;56.59
64668;BME280;51077;42.716;23.344;2023-01-25T08:28:59;96472.91;;;5.79;56.12
64668;BME280;51077;42.716;23.344;2023-01-25T08:31:26;96469.25;;;5.82;56.30
64668;BME280;51077;42.716;23.344;2023-01-25T08:33:52;96470.47;;;5.81;56.02
64668;BME280;51077;42.716;23.344;2023-01-25T08:36:19;96471.22;;;5.82;55.84
64668;BME280;51077;42.716;23.344;2023-01-25T08:38:45;96473.19;;;5.81;56.17
64668;BME280;51077;42.716;23.344;2023-01-25T08:41:14;96475.94;;;5.81;55.92
64668;BME280;51077;42.716;23.344;2023-01-25T08:43:40;96467.75;;;5.81;55.45
64668;BME280;51077;42.716;23.344;2023-01-25T08:46:05;96471.69;;;5.80;55.93
64668;BME280;51077;42.716;23.344;2023-01-25T08:48:31;96467.75;;;5.81;55.39
64668;BME280;51077;42.716;23.344;2023-01-25T08:50:57;96462.59;;;5.83;55.40
64668;BME280;51077;42.716;23.344;2023-01-25T08:53:22;96460.66;;;5.84;55.09
64668;BME280;51077;42.716;23.344;2023-01-25T08:55:48;96464.13;;;5.84;55.24
64668;BME280;51077;42.716;23.344;2023-01-25T08:58:14;96471.09;;;5.85;55.49
64668;BME280;51077;42.716;23.344;2023-01-25T09:00:41;96467.16;;;5.86;55.14
64668;BME280;51077;42.716;23.344;2023-01-25T09:03:08;96469.00;;;5.89;55.31
64668;BME280;51077;42.716;23.344;2023-01-25T09:05:34;96466.16;;;5.93;55.27
64668;BME280;51077;42.716;23.344;2023-01-25T09:08:00;96467.19;;;5.95;55.41
64668;BME280;51077;42.716;23.344;2023-01-25T09:10:26;96456.63;;;5.97;55.32
64668;BME280;51077;42.716;23.344;2023-01-25T09:12:51;96458.59;;;5.97;55.45
64668;BME280;51077;42.716;23.344;2023-01-25T09:15:17;96460.09;;;5.98;55.16
64668;BME280;51077;42.716;23.344;2023-01-25T09:17:42;96456.63;;;5.97;54.99
64668;BME280;51077;42.716;23.344;2023-01-25T09:20:08;96455.09;;;5.96;55.28
64668;BME280;51077;42.716;23.344;2023-01-25T09:22:34;96457.81;;;5.96;55.58
64668;BME280;51077;42.716;23.344;2023-01-25T09:25:00;96444.19;;;5.96;55.85
64668;BME280;51077;42.716;23.344;2023-01-25T09:27:25;96444.50;;;5.98;55.39
64668;BME280;51077;42.716;23.344;2023-01-25T09:29:50;96439.81;;;5.99;55.94
64668;BME280;51077;42.716;23.344;2023-01-25T09:32:16;96441.31;;;6.00;55.38
64668;BME280;51077;42.716;23.344;2023-01-25T09:34:41;96438.59;;;6.00;55.64
64668;BME280;51077;42.716;23.344;2023-01-25T09:37:07;96435.88;;;6.00;55.57
64668;BME280;51077;42.716;23.344;2023-01-25T09:39:32;96427.25;;;6.01;56.75
64668;BME280;51077;42.716;23.344;2023-01-25T09:47:21;96419.69;;;6.06;56.52
64668;BME280;51077;42.716;23.344;2023-01-25T09:55:13;96406.66;;;6.10;56.07
64668;BME280;51077;42.716;23.344;2023-01-25T09:57:40;96397.56;;;6.13;56.30
64668;BME280;51077;42.716;23.344;2023-01-25T10:00:20;96396.66;;;6.16;55.85
64668;BME280;51077;42.716;23.344;2023-01-25T10:05:46;96386.22;;;6.23;55.30
64668;BME280;51077;42.716;23.344;2023-01-25T10:08:36;96380.44;;;6.30;55.02
64668;BME280;51077;42.716;23.344;2023-01-25T10:11:24;96368.94;;;6.36;54.98
64668;BME280;51077;42.716;23.344;2023-01-25T10:13:50;96369.09;;;6.41;54.88
64668;BME280;51077;42.716;23.344;2023-01-25T10:16:29;96370.72;;;6.48;55.19
64668;BME280;51077;42.716;23.344;2023-01-25T10:21:44;96358.25;;;6.65;54.64
64668;BME280;51077;42.716;23.344;2023-01-25T10:27:32;96356.25;;;6.84;54.14
64668;BME280;51077;42.716;23.344;2023-01-25T10:30:36;96348.78;;;6.94;53.43
64668;BME280;51077;42.716;23.344;2023-01-25T10:33:01;96358.78;;;6.97;53.26
64668;BME280;51077;42.716;23.344;2023-01-25T10:35:35;96350.88;;;6.99;52.53
64668;BME280;51077;42.716;23.344;2023-01-25T10:38:27;96347.69;;;7.00;52.32
64668;BME280;51077;42.716;23.344;2023-01-25T10:41:00;96332.84;;;7.01;52.00
64668;BME280;51077;42.716;23.344;2023-01-25T10:43:28;96337.34;;;7.04;52.05
64668;BME280;51077;42.716;23.344;2023-01-25T10:45:54;96326.44;;;7.04;52.16
64668;BME280;51077;42.716;23.344;2023-01-25T10:48:23;96322.78;;;7.08;51.99
64668;BME280;51077;42.716;23.344;2023-01-25T10:50:53;96324.59;;;7.11;51.80
64668;BME280;51077;42.716;23.344;2023-01-25T10:53:21;96320.94;;;7.14;51.54
64668;BME280;51077;42.716;23.344;2023-01-25T11:01:06;96314.22;;;7.24;52.09
64668;BME280;51077;42.716;23.344;2023-01-25T11:03:37;96309.34;;;7.28;51.17
64668;BME280;51077;42.716;23.344;2023-01-25T11:06:05;96311.13;;;7.31;51.33
64668;BME280;51077;42.716;23.344;2023-01-25T11:08:37;96306.25;;;7.35;50.79
64668;BME280;51077;42.716;23.344;2023-01-25T11:11:57;96306.81;;;7.39;51.18
64668;BME280;51077;42.716;23.344;2023-01-25T11:14:16;96313.81;;;7.40;50.81
64668;BME280;51077;42.716;23.344;2023-01-25T11:16:44;96293.47;;;7.41;50.82
64668;BME280;51077;42.716;23.344;2023-01-25T11:21:53;96283.56;;;7.44;51.33
64668;BME280;51077;42.716;23.344;2023-01-25T11:24:19;96281.91;;;7.46;50.64
64668;BME280;51077;42.716;23.344;2023-01-25T11:26:45;96284.16;;;7.48;50.60
64668;BME280;51077;42.716;23.344;2023-01-25T11:29:19;96291.44;;;7.51;50.81
64668;BME280;51077;42.716;23.344;2023-01-25T11:31:53;96278.25;;;7.49;50.50
64668;BME280;51077;42.716;23.344;2023-01-25T11:34:26;96282.19;;;7.48;50.77
64668;BME280;51077;42.716;23.344;2023-01-25T11:42:42;96271.47;;;7.45;50.38
64668;BME280;51077;42.716;23.344;2023-01-25T11:51:49;96236.88;;;7.42;50.50
64668;BME280;51077;42.716;23.344;2023-01-25T12:10:40;96223.47;;;7.29;50.35
64668;BME280;51077;42.716;23.344;2023-01-25T12:15:56;96229.09;;;7.25;50.20
64668;BME280;51077;42.716;23.344;2023-01-25T12:29:28;96205.06;;;7.15;50.42
64668;BME280;51077;42.716;23.344;2023-01-25T12:35:21;96210.81;;;7.17;50.84
64668;BME280;51077;42.716;23.344;2023-01-25T12:37:50;96201.84;;;7.16;51.13
64668;BME280;51077;42.716;23.344;2023-01-25T12:43:22;96207.50;;;7.13;50.78
64668;BME280;51077;42.716;23.344;2023-01-25T12:45:50;96197.81;;;7.12;50.99
64668;BME280;51077;42.716;23.344;2023-01-25T12:48:30;96206.25;;;7.14;50.81
64668;BME280;51077;42.716;23.344;2023-01-25T12:50:58;96199.03;;;7.11;50.75
64668;BME280;51077;42.716;23.344;2023-01-25T12:53:37;96196.00;;;7.09;50.96
64668;BME280;51077;42.716;23.344;2023-01-25T12:56:06;96189.03;;;7.08;50.83
64668;BME280;51077;42.716;23.344;2023-01-25T12:58:48;96183.75;;;7.04;50.35
64668;BME280;51077;42.716;23.344;2023-01-25T13:01:32;96183.91;;;7.00;50.57
64668;BME280;51077;42.716;23.344;2023-01-25T13:04:31;96190.16;;;7.01;50.67
64668;BME280;51077;42.716;23.344;2023-01-25T13:07:24;96183.91;;;7.00;50.94
64668;BME280;51077;42.716;23.344;2023-01-25T13:10:04;96174.22;;;6.99;51.20
64668;BME280;51077;42.716;23.344;2023-01-25T13:12:50;96171.22;;;6.97;51.08
64668;BME280;51077;42.716;23.344;2023-01-25T13:20:59;96170.34;;;6.91;51.00
64668;BME280;51077;42.716;23.344;2023-01-25T13:28:57;96176.75;;;6.88;51.03
64668;BME280;51077;42.716;23.344;2023-01-25T13:34:56;96169.47;;;6.85;51.12
64668;BME280;51077;42.716;23.344;2023-01-25T13:36:58;96164.19;;;6.82;50.86
64668;BME280;51077;42.716;23.344;2023-01-25T13:42:20;96175.84;;;6.82;51.20
64668;BME280;51077;42.716;23.344;2023-01-25T13:44:48;96177.25;;;6.77;51.13
64668;BME280;51077;42.716;23.344;2023-01-25T13:47:19;96174.53;;;6.77;54.28
64668;BME280;51077;42.716;23.344;2023-01-25T13:52:15;96189.59;;;6.88;57.37
64668;BME280;51077;42.716;23.344;2023-01-25T13:54:42;96191.88;;;6.89;57.13
64668;BME280;51077;42.716;23.344;2023-01-25T13:57:17;96182.66;;;6.87;56.28
64668;BME280;51077;42.716;23.344;2023-01-25T13:59:44;96179.34;;;6.83;55.65
64668;BME280;51077;42.716;23.344;2023-01-25T14:02:21;96187.41;;;6.77;55.27
64668;BME280;51077;42.716;23.344;2023-01-25T14:04:49;96193.03;;;6.73;55.14
64668;BME280;51077;42.716;23.344;2023-01-25T14:07:18;96190.19;;;6.68;54.75
64668;BME280;51077;42.716;23.344;2023-01-25T14:09:45;96190.06;;;6.62;54.07
64668;BME280;51077;42.716;23.344;2023-01-25T14:12:42;96189.66;;;6.54;53.77
64668;BME280;51077;42.716;23.344;2023-01-25T14:15:29;96181.53;;;6.45;54.02
64668;BME280;51077;42.716;23.344;2023-01-25T14:18:16;96176.41;;;6.38;53.57
64668;BME280;51077;42.716;23.344;2023-01-25T14:20:44;96185.97;;;6.34;53.97
64668;BME280;51077;42.716;23.344;2023-01-25T14:23:21;96179.16;;;6.29;53.85
64668;BME280;51077;42.716;23.344;2023-01-25T14:25:47;96182.06;;;6.25;53.44
64668;BME280;51077;42.716;23.344;2023-01-25T14:28:13;96178.28;;;6.23;53.95
64668;BME280;51077;42.716;23.344;2023-01-25T14:30:39;96184.34;;;6.18;54.02
64668;BME280;51077;42.716;23.344;2023-01-25T14:33:21;96173.31;;;6.12;54.14
64668;BME280;51077;42.716;23.344;2023-01-25T14:35:49;96164.56;;;6.08;53.46
64668;BME280;51077;42.716;23.344;2023-01-25T14:38:30;96171.22;;;6.07;53.95
64668;BME280;51077;42.716;23.344;2023-01-25T14:41:02;96152.03;;;6.01;53.61
64668;BME280;51077;42.716;23.344;2023-01-25T14:43:30;96159.88;;;5.99;53.81
64668;BME280;51077;42.716;23.344;2023-01-25T14:45:56;96166.25;;;5.96;53.87
64668;BME280;51077;42.716;23.344;2023-01-25T14:48:39;96153.56;;;5.93;53.99